Time;durP1;ratioP1;P1;durP2;ratioP2;P2;SDS_P1;SDS_P2;PMS_P1;PMS_P2;Temp;Humidity;BMP_temperature;BMP_pressure;BME280_temperature;BME280_humidity;BME280_pressure;Samples;Min_cycle;Max_cycle;Signal;HPM_P1;HPM_P2
2021/01/18 00:01:18;;;;;;;24.60;15.93;;;6.20;95.50;;;;;;5052070;28;20724;-49
2021/01/18 00:03:45;;;;;;;18.73;14.43;;;6.20;95.40;;;;;;5051433;28;20688;-49
2021/01/18 00:06:16;;;;;;;20.03;15.07;;;6.20;95.40;;;;;;5054475;28;20628;-48
2021/01/18 00:08:44;;;;;;;21.30;14.07;;;6.20;95.40;;;;;;5071120;28;20621;-49
2021/01/18 00:11:10;;;;;;;18.07;15.03;;;6.20;95.30;;;;;;5070159;28;20694;-49
2021/01/18 00:13:37;;;;;;;18.03;13.27;;;6.10;95.30;;;;;;5070322;28;20740;-49
2021/01/18 00:16:04;;;;;;;19.80;14.27;;;6.10;95.50;;;;;;5071069;28;20697;-49
2021/01/18 00:18:31;;;;;;;16.57;14.03;;;6.20;95.50;;;;;;5071171;28;20635;-49
2021/01/18 00:20:58;;;;;;;25.17;14.60;;;6.20;95.40;;;;;;5062070;28;20712;-49
2021/01/18 00:23:26;;;;;;;18.33;14.07;;;6.20;95.40;;;;;;5070967;28;20627;-49
2021/01/18 00:25:52;;;;;;;20.17;14.47;;;6.20;95.40;;;;;;5069088;28;20693;-49
2021/01/18 00:28:20;;;;;;;18.67;13.60;;;6.20;95.50;;;;;;5069928;28;20638;-49
2021/01/18 00:30:46;;;;;;;20.60;14.20;;;6.20;95.40;;;;;;5070812;28;20658;-49
2021/01/18 00:33:13;;;;;;;17.03;12.90;;;6.20;95.40;;;;;;5068706;28;20705;-49
2021/01/18 00:35:40;;;;;;;19.77;13.30;;;6.30;95.40;;;;;;5064348;28;21242;-49
2021/01/18 00:38:07;;;;;;;20.93;15.40;;;6.30;95.30;;;;;;5077381;28;20621;-49
2021/01/18 00:40:34;;;;;;;15.90;14.13;;;6.30;95.20;;;;;;5090576;28;20687;-48
2021/01/18 00:43:01;;;;;;;21.27;13.27;;;6.30;95.20;;;;;;5069891;28;21029;-48
2021/01/18 00:45:28;;;;;;;18.00;12.97;;;6.30;95.20;;;;;;5069012;28;20610;-49
2021/01/18 00:47:56;;;;;;;15.63;11.80;;;6.30;95.30;;;;;;5068757;28;20687;-49
2021/01/18 00:50:24;;;;;;;20.80;15.17;;;6.30;95.20;;;;;;5070610;28;20674;-48
2021/01/18 00:52:51;;;;;;;16.37;12.73;;;6.30;95.10;;;;;;5070349;28;20622;-49
2021/01/18 00:55:19;;;;;;;18.70;12.93;;;6.30;95.10;;;;;;5069497;28;20995;-49
2021/01/18 00:57:47;;;;;;;17.00;13.30;;;6.40;95.20;;;;;;5070126;28;21003;-49
2021/01/18 01:00:15;;;;;;;21.13;13.50;;;6.30;95.10;;;;;;5069759;28;20716;-48
2021/01/18 01:02:42;;;;;;;16.93;11.80;;;6.30;95.00;;;;;;5070616;28;20658;-49
2021/01/18 01:05:10;;;;;;;15.93;11.40;;;6.30;95.10;;;;;;5057567;28;20669;-49
2021/01/18 01:07:38;;;;;;;18.23;12.67;;;6.30;95.20;;;;;;5050529;28;20628;-47
2021/01/18 01:10:06;;;;;;;16.37;12.50;;;6.30;95.20;;;;;;5052183;28;20760;-48
2021/01/18 01:12:33;;;;;;;18.83;12.43;;;6.30;95.20;;;;;;5051189;28;21168;-48
2021/01/18 01:15:01;;;;;;;15.27;12.80;;;6.40;95.20;;;;;;5050908;28;20668;-49
2021/01/18 01:17:27;;;;;;;17.23;11.80;;;6.40;95.20;;;;;;5050568;28;20624;-48
2021/01/18 01:19:54;;;;;;;14.37;12.87;;;6.40;95.20;;;;;;5050075;28;20652;-48
2021/01/18 01:22:21;;;;;;;16.03;12.33;;;6.40;95.30;;;;;;5050236;28;20631;-49
2021/01/18 01:24:48;;;;;;;16.90;12.23;;;6.50;95.20;;;;;;5058142;28;21172;-49
2021/01/18 01:27:14;;;;;;;19.60;11.53;;;6.50;95.10;;;;;;5050652;28;20699;-48
2021/01/18 01:29:41;;;;;;;15.33;12.40;;;6.40;95.10;;;;;;5062171;28;20745;-47
2021/01/18 01:32:09;;;;;;;16.53;11.53;;;6.40;95.10;;;;;;5068859;28;20672;-49
2021/01/18 01:34:36;;;;;;;16.40;13.60;;;6.50;95.10;;;;;;5069689;28;20652;-49
2021/01/18 01:37:02;;;;;;;19.73;12.57;;;6.50;95.00;;;;;;5069352;28;20659;-51
2021/01/18 01:39:29;;;;;;;16.97;12.40;;;6.50;95.00;;;;;;5069966;28;20651;-49
2021/01/18 01:41:56;;;;;;;14.20;11.13;;;6.50;95.00;;;;;;5069470;28;20780;-49
2021/01/18 01:44:22;;;;;;;16.30;12.93;;;6.50;95.00;;;;;;5069399;28;20669;-51
2021/01/18 01:46:49;;;;;;;15.00;12.17;;;6.50;95.00;;;;;;5068498;28;20659;-50
2021/01/18 01:49:17;;;;;;;15.93;13.30;;;6.50;95.00;;;;;;5069221;28;20668;-50
2021/01/18 01:51:43;;;;;;;13.63;11.50;;;6.60;95.00;;;;;;5070006;28;20686;-50
2021/01/18 01:54:10;;;;;;;16.57;11.30;;;6.60;94.90;;;;;;5069155;28;20692;-51
2021/01/18 01:56:37;;;;;;;15.30;11.90;;;6.50;94.80;;;;;;5068093;28;20740;-50
2021/01/18 01:59:04;;;;;;;19.73;13.90;;;6.50;94.80;;;;;;5049620;28;21116;-50
2021/01/18 02:01:31;;;;;;;20.03;10.90;;;6.60;94.90;;;;;;5049454;28;20705;-49
2021/01/18 02:03:57;;;;;;;15.30;12.13;;;6.50;94.80;;;;;;5052629;28;20692;-49
2021/01/18 02:06:25;;;;;;;15.47;12.63;;;6.50;94.90;;;;;;5069445;28;20655;-49
2021/01/18 02:08:52;;;;;;;16.53;11.53;;;6.50;94.90;;;;;;5068479;28;20709;-48
2021/01/18 02:11:19;;;;;;;16.43;11.93;;;6.50;95.00;;;;;;5050880;28;20703;-48
2021/01/18 02:14:02;;;;;;;12.97;11.57;;;6.50;95.00;;;;;;5050966;28;20624;-48
2021/01/18 02:16:31;;;;;;;24.07;13.30;;;6.50;94.90;;;;;;5050063;28;20695;-49
2021/01/18 02:19:38;;;;;;;16.30;12.10;;;6.50;94.90;;;;;;5050983;28;20632;-49
2021/01/18 02:22:36;;;;;;;15.13;12.77;;;6.50;95.00;;;;;;4988856;28;20953;-48
2021/01/18 02:25:14;;;;;;;16.60;12.20;;;6.50;95.00;;;;;;5054835;28;20695;-49
2021/01/18 02:28:01;;;;;;;13.70;11.90;;;6.50;95.00;;;;;;5068712;28;20753;-49
2021/01/18 02:31:22;;;;;;;23.27;12.90;;;6.50;95.00;;;;;;5068584;28;20668;-48
2021/01/18 02:34:16;;;;;;;17.70;12.20;;;6.50;95.20;;;;;;5069242;28;20712;-50
2021/01/18 02:36:48;;;;;;;14.20;11.57;;;6.50;95.10;;;;;;5050716;28;20659;-49
2021/01/18 02:39:21;;;;;;;14.57;11.57;;;6.50;95.00;;;;;;5068945;28;20649;-49
2021/01/18 02:41:50;;;;;;;16.70;12.27;;;6.50;95.10;;;;;;5069612;28;20658;-49
2021/01/18 02:44:18;;;;;;;16.23;13.47;;;6.40;95.10;;;;;;5070140;28;20668;-49
2021/01/18 02:46:47;;;;;;;13.90;10.60;;;6.40;95.20;;;;;;5072836;28;20622;-48
2021/01/18 02:49:13;;;;;;;13.53;9.87;;;6.50;95.20;;;;;;5072226;28;20626;-49
2021/01/18 02:51:43;;;;;;;20.30;14.40;;;6.50;95.10;;;;;;5072176;28;20656;-49
2021/01/18 02:54:10;;;;;;;15.70;12.83;;;6.50;95.20;;;;;;5056856;28;20631;-49
2021/01/18 02:56:37;;;;;;;19.03;10.93;;;6.50;95.20;;;;;;5072526;28;20785;-49
2021/01/18 02:59:04;;;;;;;15.83;11.17;;;6.50;95.10;;;;;;5072942;28;20623;-49
2021/01/18 03:02:06;;;;;;;13.40;10.57;;;6.40;95.20;;;;;;5070875;28;20659;-49
2021/01/18 03:05:05;;;;;;;19.83;11.53;;;6.40;95.30;;;;;;5069169;28;20700;-49
2021/01/18 03:07:35;;;;;;;18.40;12.90;;;6.40;95.30;;;;;;5061197;28;20699;-49
2021/01/18 03:10:05;;;;;;;19.13;12.63;;;6.40;95.30;;;;;;5071689;28;20658;-49
2021/01/18 03:12:36;;;;;;;16.43;11.37;;;6.50;95.30;;;;;;5072455;28;20676;-49
2021/01/18 03:15:04;;;;;;;19.57;13.20;;;6.50;95.30;;;;;;5071896;28;20689;-49
2021/01/18 03:17:30;;;;;;;15.73;11.67;;;6.50;95.60;;;;;;5072412;28;20648;-49
2021/01/18 03:19:57;;;;;;;18.67;12.60;;;6.50;95.20;;;;;;5071421;28;21387;-49
2021/01/18 03:22:25;;;;;;;15.30;11.10;;;6.50;95.10;;;;;;5071897;28;20950;-49
2021/01/18 03:24:51;;;;;;;17.47;12.07;;;6.50;95.20;;;;;;5070816;28;20659;-49
2021/01/18 03:27:19;;;;;;;15.30;12.80;;;6.60;95.20;;;;;;5072148;28;20624;-49
2021/01/18 03:29:49;;;;;;;16.80;11.37;;;6.60;95.10;;;;;;5071226;28;20653;-48
2021/01/18 03:32:16;;;;;;;18.93;11.67;;;6.60;95.20;;;;;;5072013;28;20647;-49
2021/01/18 03:34:42;;;;;;;18.80;11.93;;;6.60;95.10;;;;;;5065950;28;21062;-49
2021/01/18 03:37:09;;;;;;;15.20;11.53;;;6.60;95.00;;;;;;5050604;28;20662;-49
2021/01/18 03:39:36;;;;;;;19.37;12.00;;;6.60;95.00;;;;;;5060938;28;20714;-49
2021/01/18 03:42:03;;;;;;;21.00;12.77;;;6.60;95.10;;;;;;5071664;28;20694;-49
2021/01/18 03:44:30;;;;;;;15.10;13.20;;;6.60;95.10;;;;;;5071406;28;20626;-49
2021/01/18 03:46:57;;;;;;;19.00;12.83;;;6.60;95.10;;;;;;5071501;28;20663;-48
2021/01/18 03:49:24;;;;;;;21.13;12.27;;;6.50;95.00;;;;;;5070758;28;20650;-49
2021/01/18 03:51:50;;;;;;;13.83;12.43;;;6.50;95.10;;;;;;5071128;28;20682;-49
2021/01/18 03:54:17;;;;;;;18.13;11.13;;;6.50;95.20;;;;;;5070314;28;21221;-49
2021/01/18 03:56:44;;;;;;;14.40;12.13;;;6.50;95.20;;;;;;5070356;28;21015;-49
2021/01/18 03:59:11;;;;;;;15.20;11.83;;;6.50;95.20;;;;;;5071270;28;20628;-49
2021/01/18 04:01:39;;;;;;;16.17;13.40;;;6.60;95.20;;;;;;5071236;28;20674;-49
2021/01/18 04:04:06;;;;;;;20.77;13.23;;;6.60;95.10;;;;;;5070839;28;20634;-49
2021/01/18 04:06:36;;;;;;;16.33;10.20;;;6.60;95.00;;;;;;5071319;28;20803;-49
2021/01/18 04:09:03;;;;;;;15.30;11.30;;;6.70;94.90;;;;;;5071130;28;20974;-49
2021/01/18 04:11:30;;;;;;;23.00;11.70;;;6.60;94.80;;;;;;5070265;28;20781;-48
2021/01/18 04:13:57;;;;;;;14.13;12.17;;;6.60;94.90;;;;;;5071355;28;21018;-50
2021/01/18 04:16:23;;;;;;;19.17;12.53;;;6.60;95.00;;;;;;5066715;28;20685;-48
2021/01/18 04:18:51;;;;;;;19.33;11.57;;;6.60;95.10;;;;;;5050735;28;20635;-49
2021/01/18 04:21:18;;;;;;;13.50;11.17;;;6.50;95.00;;;;;;5050313;28;20644;-49
2021/01/18 04:23:44;;;;;;;13.03;10.30;;;6.60;94.90;;;;;;5050191;28;20744;-49
2021/01/18 04:26:11;;;;;;;13.13;10.33;;;6.60;94.90;;;;;;5050555;28;20659;-48
2021/01/18 04:28:38;;;;;;;14.47;10.77;;;6.60;95.00;;;;;;5050642;28;20670;-49
2021/01/18 04:31:05;;;;;;;15.37;11.00;;;6.60;94.80;;;;;;5104685;22;20697;-58
2021/01/18 04:33:32;;;;;;;15.20;11.73;;;6.60;94.80;;;;;;5113461;28;20650;-58
2021/01/18 04:36:00;;;;;;;18.70;10.70;;;6.70;94.70;;;;;;5113039;28;20690;-58
2021/01/18 04:38:26;;;;;;;15.33;11.10;;;6.70;94.60;;;;;;5112474;28;20660;-60
2021/01/18 04:40:53;;;;;;;17.77;10.30;;;6.70;94.80;;;;;;5103697;28;20690;-59
2021/01/18 04:43:20;;;;;;;13.07;10.17;;;6.70;94.40;;;;;;5092281;28;20618;-59
2021/01/18 04:45:49;;;;;;;20.10;11.27;;;6.70;94.50;;;;;;5090876;28;20646;-58
2021/01/18 04:48:15;;;;;;;18.67;11.77;;;6.70;94.60;;;;;;5091557;28;20665;-60
2021/01/18 04:50:42;;;;;;;15.60;10.90;;;6.70;94.50;;;;;;5092404;28;20760;-59
2021/01/18 04:53:14;;;;;;;15.27;9.27;;;6.70;94.30;;;;;;5090722;28;20672;-58
2021/01/18 04:55:58;;;;;;;15.40;10.20;;;6.60;94.20;;;;;;5092251;28;20702;-57
2021/01/18 04:58:29;;;;;;;13.80;11.57;;;6.70;94.40;;;;;;5090396;28;20692;-58
2021/01/18 05:00:56;;;;;;;15.77;11.17;;;6.60;94.30;;;;;;5091758;28;20654;-58
2021/01/18 05:03:23;;;;;;;14.97;9.70;;;6.70;94.30;;;;;;5091980;28;20629;-61
2021/01/18 05:06:06;;;;;;;14.30;10.07;;;6.70;94.30;;;;;;5091768;28;20696;-60
2021/01/18 05:08:53;;;;;;;14.90;10.33;;;6.60;94.20;;;;;;5091280;28;20641;-59
2021/01/18 05:11:20;;;;;;;13.43;8.93;;;6.70;94.20;;;;;;5091736;28;20650;-60
2021/01/18 05:13:46;;;;;;;12.93;8.60;;;6.60;94.10;;;;;;5091484;28;20622;-59
2021/01/18 05:16:13;;;;;;;17.70;10.33;;;6.60;94.10;;;;;;5074341;28;20650;-58
2021/01/18 05:18:41;;;;;;;13.97;11.40;;;6.70;94.10;;;;;;5079356;28;20624;-58
2021/01/18 05:21:08;;;;;;;16.30;9.97;;;6.70;94.10;;;;;;5091819;28;20684;-59
2021/01/18 05:23:39;;;;;;;15.30;9.10;;;6.70;93.90;;;;;;5088647;28;21239;-59
2021/01/18 05:26:16;;;;;;;11.00;9.90;;;6.70;93.90;;;;;;5082688;28;20677;-59
2021/01/18 05:28:44;;;;;;;10.23;9.13;;;6.60;93.90;;;;;;5086821;28;20623;-59
2021/01/18 05:31:11;;;;;;;11.33;8.93;;;6.60;93.90;;;;;;5090821;28;20694;-59
2021/01/18 05:33:38;;;;;;;13.27;9.73;;;6.60;94.00;;;;;;5091443;28;21182;-58
2021/01/18 05:36:06;;;;;;;10.37;8.90;;;6.60;93.90;;;;;;5091334;28;20685;-59
2021/01/18 05:38:32;;;;;;;14.13;7.20;;;6.60;93.80;;;;;;5089666;28;21198;-58
2021/01/18 05:41:01;;;;;;;14.93;9.63;;;6.60;93.90;;;;;;5091708;28;21087;-59
2021/01/18 05:43:35;;;;;;;14.13;8.10;;;6.50;93.90;;;;;;5091495;28;20972;-58
2021/01/18 05:46:02;;;;;;;14.00;9.00;;;6.50;93.90;;;;;;5090570;28;20667;-60
2021/01/18 05:48:29;;;;;;;15.33;9.70;;;6.40;93.90;;;;;;5090097;28;20625;-59
2021/01/18 05:50:56;;;;;;;12.13;9.80;;;6.30;94.00;;;;;;5091387;28;21011;-58
2021/01/18 05:53:27;;;;;;;11.23;9.20;;;6.30;94.10;;;;;;5091538;28;20674;-58
2021/01/18 05:55:54;;;;;;;9.70;8.43;;;6.30;94.10;;;;;;5091257;28;20688;-59
2021/01/18 05:58:33;;;;;;;12.03;9.00;;;6.20;94.10;;;;;;5091220;28;20650;-58
2021/01/18 06:01:00;;;;;;;10.40;8.20;;;6.10;94.20;;;;;;5090990;28;21239;-58
2021/01/18 06:03:28;;;;;;;13.43;9.67;;;6.10;94.40;;;;;;5091334;28;20658;-59
2021/01/18 06:05:54;;;;;;;16.50;8.80;;;6.00;94.30;;;;;;5091296;28;20658;-57
2021/01/18 06:08:21;;;;;;;15.57;9.70;;;6.00;94.40;;;;;;5091073;28;20659;-57
2021/01/18 06:10:48;;;;;;;8.53;7.70;;;6.10;94.50;;;;;;5090943;28;20680;-57
2021/01/18 06:13:22;;;;;;;11.80;9.37;;;6.20;94.40;;;;;;5085190;28;20666;-56
2021/01/18 06:15:52;;;;;;;19.53;9.83;;;6.20;94.50;;;;;;5071088;28;20691;-58
2021/01/18 06:18:20;;;;;;;12.90;9.73;;;6.30;94.20;;;;;;5072023;28;20623;-59
2021/01/18 06:20:47;;;;;;;10.50;9.40;;;6.40;94.20;;;;;;5094464;28;20684;-58
2021/01/18 06:23:20;;;;;;;14.00;9.87;;;6.40;94.00;;;;;;5093476;28;20648;-57
2021/01/18 06:25:49;;;;;;;11.10;8.60;;;6.50;93.90;;;;;;5096133;28;20611;-57
2021/01/18 06:28:25;;;;;;;14.20;9.70;;;6.50;93.80;;;;;;5095892;28;20621;-58
2021/01/18 06:30:56;;;;;;;12.70;9.70;;;6.40;93.80;;;;;;5096344;28;21185;-57
2021/01/18 06:33:35;;;;;;;12.13;8.00;;;6.30;93.70;;;;;;5098322;28;20990;-58
2021/01/18 06:36:11;;;;;;;14.00;8.40;;;6.30;93.70;;;;;;5099742;28;20722;-57
2021/01/18 06:38:39;;;;;;;15.80;9.03;;;6.30;93.80;;;;;;5104849;28;20651;-57
2021/01/18 06:41:06;;;;;;;15.23;9.13;;;6.20;93.90;;;;;;5108096;28;20667;-56
2021/01/18 06:43:33;;;;;;;11.23;8.80;;;6.20;93.80;;;;;;5106796;28;20623;-57
2021/01/18 06:46:00;;;;;;;10.93;8.10;;;6.20;93.80;;;;;;5097191;28;20640;-57
2021/01/18 06:48:27;;;;;;;13.07;9.87;;;6.20;94.00;;;;;;5095336;28;20620;-59
2021/01/18 06:50:54;;;;;;;10.67;8.50;;;6.20;94.00;;;;;;5094605;28;20689;-57
2021/01/18 06:53:23;;;;;;;12.20;9.23;;;6.20;94.00;;;;;;5094226;28;20653;-57
2021/01/18 06:56:16;;;;;;;13.57;10.93;;;6.20;94.00;;;;;;5092629;28;20646;-57
2021/01/18 06:58:52;;;;;;;13.90;9.63;;;6.10;94.00;;;;;;5093944;28;20647;-58
2021/01/18 07:01:24;;;;;;;11.90;9.03;;;6.10;94.10;;;;;;5093628;28;20684;-59
2021/01/18 07:03:54;;;;;;;17.63;7.97;;;6.20;94.10;;;;;;5092100;28;20793;-57
2021/01/18 07:06:30;;;;;;;12.27;7.77;;;6.20;93.90;;;;;;5092826;28;20699;-59
2021/01/18 07:08:58;;;;;;;10.37;8.30;;;6.20;93.90;;;;;;5093285;28;20622;-57
2021/01/18 07:11:25;;;;;;;14.83;8.17;;;6.20;94.00;;;;;;5093062;28;20788;-58
2021/01/18 07:13:52;;;;;;;10.97;7.10;;;6.20;94.00;;;;;;5093114;28;20682;-58
2021/01/18 07:16:20;;;;;;;9.87;8.00;;;6.10;93.80;;;;;;5093379;28;21268;-58
2021/01/18 07:18:53;;;;;;;11.73;7.90;;;6.10;93.90;;;;;;5093122;28;20657;-58
2021/01/18 07:21:20;;;;;;;13.23;9.40;;;6.10;94.10;;;;;;5091867;28;20644;-58
2021/01/18 07:23:55;;;;;;;10.60;9.20;;;6.10;93.90;;;;;;5092689;28;20736;-58
2021/01/18 07:26:56;;;;;;;11.10;8.83;;;6.10;93.90;;;;;;5093848;28;20641;-59
2021/01/18 07:29:24;;;;;;;15.87;7.40;;;6.10;94.10;;;;;;5091136;28;20616;-58
2021/01/18 07:31:53;;;;;;;13.03;8.37;;;6.20;93.90;;;;;;5091624;28;20685;-58
2021/01/18 07:34:22;;;;;;;13.37;9.70;;;6.20;93.60;;;;;;5093022;28;20650;-58
2021/01/18 07:36:49;;;;;;;11.00;8.00;;;6.20;93.60;;;;;;5075475;28;20750;-58
2021/01/18 07:39:29;;;;;;;10.80;6.63;;;6.20;93.50;;;;;;5072789;28;20735;-58
2021/01/18 07:41:56;;;;;;;7.23;6.53;;;6.30;93.60;;;;;;5072431;28;20725;-58
2021/01/18 07:44:35;;;;;;;7.57;5.47;;;6.30;93.50;;;;;;5072480;28;21163;-57
2021/01/18 07:47:03;;;;;;;7.50;6.50;;;6.20;93.30;;;;;;5079085;28;20629;-58
2021/01/18 07:49:44;;;;;;;11.90;8.23;;;6.20;93.20;;;;;;5092585;28;20663;-58
2021/01/18 07:52:15;;;;;;;10.97;7.10;;;6.20;93.40;;;;;;5092705;28;20657;-58
2021/01/18 07:54:42;;;;;;;10.77;7.63;;;6.20;93.30;;;;;;5092860;28;21057;-58
2021/01/18 07:57:37;;;;;;;13.37;7.60;;;6.20;93.30;;;;;;5092439;28;20700;-57
2021/01/18 08:00:29;;;;;;;12.77;8.40;;;6.30;93.20;;;;;;5068312;28;20621;-58
2021/01/18 08:03:20;;;;;;;13.80;8.60;;;6.20;93.10;;;;;;5092402;28;20618;-59
2021/01/18 08:05:49;;;;;;;11.00;7.60;;;6.20;93.20;;;;;;5092450;28;20680;-58
2021/01/18 08:08:16;;;;;;;8.43;7.40;;;6.30;93.40;;;;;;5091993;28;20621;-57
2021/01/18 08:11:00;;;;;;;8.80;6.53;;;6.20;92.90;;;;;;5091904;28;21039;-57
2021/01/18 08:13:34;;;;;;;10.73;7.17;;;6.20;93.00;;;;;;5091714;28;20625;-57
2021/01/18 08:16:12;;;;;;;10.37;6.90;;;6.20;93.20;;;;;;5092163;28;21071;-59
2021/01/18 08:18:49;;;;;;;9.27;7.73;;;6.20;93.40;;;;;;5091674;28;20640;-58
2021/01/18 08:21:43;;;;;;;9.47;6.80;;;6.20;93.20;;;;;;5092482;28;20641;-56
2021/01/18 08:24:11;;;;;;;11.43;7.60;;;6.20;93.20;;;;;;5090766;28;21200;-58
2021/01/18 08:26:57;;;;;;;8.37;6.60;;;6.20;93.00;;;;;;5092254;28;20616;-57
2021/01/18 08:29:40;;;;;;;12.20;7.67;;;6.20;93.10;;;;;;5091961;28;21233;-57
2021/01/18 08:32:35;;;;;;;10.63;6.80;;;6.20;93.10;;;;;;5091208;28;20672;-59
2021/01/18 08:35:02;;;;;;;8.67;6.90;;;6.10;92.90;;;;;;5090139;28;20618;-60
2021/01/18 08:37:30;;;;;;;10.40;7.17;;;6.10;93.00;;;;;;5092061;28;20705;-60
2021/01/18 08:39:58;;;;;;;13.27;7.00;;;6.00;93.00;;;;;;5091900;28;20627;-59
2021/01/18 08:42:25;;;;;;;7.90;6.23;;;6.10;93.10;;;;;;5089222;28;20633;-57
2021/01/18 08:44:59;;;;;;;11.90;6.50;;;6.10;93.20;;;;;;5091478;28;20999;-57
2021/01/18 08:47:39;;;;;;;7.57;6.90;;;6.10;93.40;;;;;;5090550;28;21192;-57
2021/01/18 08:50:23;;;;;;;8.00;7.20;;;6.10;93.60;;;;;;5091036;28;20681;-57
2021/01/18 08:52:51;;;;;;;10.70;6.50;;;6.10;93.40;;;;;;5091485;28;20646;-57
2021/01/18 08:55:40;;;;;;;13.20;7.90;;;6.10;93.30;;;;;;5091577;28;20664;-59
2021/01/18 08:58:07;;;;;;;10.33;7.87;;;6.20;93.30;;;;;;5091282;28;21086;-59
2021/01/18 09:00:43;;;;;;;10.00;6.40;;;6.30;93.30;;;;;;5091065;28;20765;-58
2021/01/18 09:03:11;;;;;;;14.70;6.90;;;6.30;93.10;;;;;;5091260;28;20705;-58
2021/01/18 09:05:38;;;;;;;12.83;8.50;;;6.30;92.80;;;;;;5090802;28;21200;-59
2021/01/18 09:08:08;;;;;;;8.90;7.83;;;6.30;92.70;;;;;;5091333;28;20965;-58
2021/01/18 09:10:35;;;;;;;12.07;8.50;;;6.30;92.90;;;;;;5089514;28;20649;-58
2021/01/18 09:13:03;;;;;;;11.20;8.93;;;6.30;93.10;;;;;;5091046;28;20666;-57
2021/01/18 09:15:30;;;;;;;20.73;7.20;;;6.30;93.20;;;;;;5091222;28;21167;-56
2021/01/18 09:17:57;;;;;;;13.60;8.37;;;6.30;93.10;;;;;;5091078;28;20693;-58
2021/01/18 09:20:24;;;;;;;15.70;10.00;;;6.30;93.10;;;;;;5090481;28;20688;-57
2021/01/18 09:22:51;;;;;;;12.23;7.90;;;6.30;93.30;;;;;;5091319;28;20620;-56
2021/01/18 09:25:19;;;;;;;14.10;8.40;;;6.20;93.40;;;;;;5091501;28;20648;-57
2021/01/18 09:27:46;;;;;;;14.83;7.80;;;6.20;93.70;;;;;;5091492;28;20985;-57
2021/01/18 09:30:16;;;;;;;10.50;9.17;;;6.30;93.60;;;;;;5091312;28;20672;-57
2021/01/18 09:32:53;;;;;;;12.20;8.37;;;6.30;93.70;;;;;;5089323;28;20727;-56
2021/01/18 09:35:20;;;;;;;11.73;8.60;;;6.30;93.30;;;;;;5087015;28;20621;-58
2021/01/18 09:37:48;;;;;;;13.90;9.00;;;6.30;93.40;;;;;;5068766;28;20737;-58
2021/01/18 09:40:16;;;;;;;45.40;8.83;;;6.40;93.30;;;;;;5070597;28;20663;-57
2021/01/18 09:42:45;;;;;;;18.47;10.03;;;6.30;93.40;;;;;;5070995;28;20628;-56
2021/01/18 09:45:12;;;;;;;10.97;8.70;;;6.30;93.60;;;;;;5070003;28;20666;-57
2021/01/18 09:47:39;;;;;;;12.73;10.20;;;6.30;93.60;;;;;;5070121;28;20609;-56
2021/01/18 09:50:08;;;;;;;14.77;9.80;;;6.30;93.70;;;;;;5070339;28;20999;-57
2021/01/18 09:52:38;;;;;;;11.40;8.83;;;6.40;93.80;;;;;;5070290;28;20636;-57
2021/01/18 09:55:12;;;;;;;13.07;8.93;;;6.40;93.80;;;;;;5070434;28;21166;-57
2021/01/18 09:57:39;;;;;;;11.60;8.47;;;6.50;93.80;;;;;;5069169;28;20809;-57
2021/01/18 10:00:09;;;;;;;9.67;7.00;;;6.50;93.40;;;;;;5085698;28;20662;-56
2021/01/18 10:02:37;;;;;;;12.50;9.70;;;6.60;93.30;;;;;;5083826;28;20627;-56
2021/01/18 10:05:05;;;;;;;14.40;10.47;;;6.60;93.10;;;;;;5089747;28;21201;-57
2021/01/18 10:07:31;;;;;;;14.60;10.00;;;6.70;93.00;;;;;;5090120;28;20619;-58
2021/01/18 10:09:58;;;;;;;13.00;10.00;;;6.70;92.90;;;;;;5089931;28;20666;-58
2021/01/18 10:12:25;;;;;;;15.50;9.93;;;6.70;93.00;;;;;;5090510;28;20648;-59
2021/01/18 10:14:53;;;;;;;15.87;9.50;;;6.70;93.00;;;;;;5089379;28;20734;-57
2021/01/18 10:17:29;;;;;;;7.97;7.20;;;6.70;93.10;;;;;;5089740;28;20796;-58
2021/01/18 10:20:03;;;;;;;15.63;11.97;;;6.70;92.90;;;;;;5090520;28;20629;-57
2021/01/18 10:22:35;;;;;;;13.20;10.73;;;6.70;93.00;;;;;;5089957;28;20652;-58
2021/01/18 10:25:01;;;;;;;11.00;9.53;;;6.80;93.10;;;;;;5089800;28;20721;-58
2021/01/18 10:27:29;;;;;;;17.90;10.37;;;6.90;93.20;;;;;;5089332;28;21190;-57
2021/01/18 10:30:10;;;;;;;13.40;10.80;;;6.90;93.10;;;;;;5089931;28;20624;-57
2021/01/18 10:32:41;;;;;;;14.00;12.37;;;7.00;92.60;;;;;;5116921;22;20685;-50
2021/01/18 10:35:29;;;;;;;25.30;12.20;;;6.90;92.60;;;;;;5108940;28;20665;-49
2021/01/18 10:38:12;;;;;;;15.00;10.43;;;7.00;92.80;;;;;;5108186;28;21166;-49
2021/01/18 10:40:39;;;;;;;12.50;9.20;;;7.10;92.70;;;;;;5109393;28;20770;-49
2021/01/18 10:43:07;;;;;;;20.37;11.80;;;7.20;92.90;;;;;;5109332;28;20618;-50
2021/01/18 10:45:40;;;;;;;16.37;10.03;;;7.30;92.80;;;;;;5109048;28;20658;-50
2021/01/18 10:48:08;;;;;;;11.13;9.80;;;7.40;92.50;;;;;;5109215;28;20651;-48
2021/01/18 10:50:35;;;;;;;12.77;9.50;;;7.60;92.30;;;;;;5108939;28;20658;-49
2021/01/18 10:53:07;;;;;;;16.23;12.87;;;7.60;92.00;;;;;;5108551;28;20623;-49
2021/01/18 10:55:34;;;;;;;13.47;8.97;;;7.70;91.50;;;;;;5108864;28;20618;-49
2021/01/18 10:58:00;;;;;;;14.13;10.53;;;7.70;91.30;;;;;;5107985;28;21268;-51
2021/01/18 11:00:28;;;;;;;13.93;9.87;;;7.70;91.50;;;;;;5108705;28;20630;-50
2021/01/18 11:03:02;;;;;;;10.90;9.57;;;7.80;91.40;;;;;;5108578;28;20658;-50
2021/01/18 11:05:34;;;;;;;22.17;13.00;;;7.90;91.00;;;;;;5108375;28;20891;-49
2021/01/18 11:08:01;;;;;;;14.07;9.60;;;8.00;90.90;;;;;;5112334;28;20753;-49
2021/01/18 11:10:29;;;;;;;11.87;10.67;;;8.20;90.80;;;;;;5112153;28;20679;-49
2021/01/18 11:13:04;;;;;;;16.17;11.80;;;8.20;90.50;;;;;;5111570;28;20683;-49
2021/01/18 11:15:33;;;;;;;13.20;10.93;;;8.20;90.50;;;;;;5110366;28;20622;-49
2021/01/18 11:18:00;;;;;;;13.97;10.93;;;8.00;90.80;;;;;;5111628;27;20687;-49
2021/01/18 11:20:27;;;;;;;18.13;11.97;;;8.00;90.80;;;;;;5112249;28;20627;-48
2021/01/18 11:22:54;;;;;;;14.03;12.57;;;8.00;91.20;;;;;;5112432;28;20716;-48
2021/01/18 11:25:21;;;;;;;13.57;10.03;;;7.80;91.30;;;;;;5111292;28;20654;-50
2021/01/18 11:27:48;;;;;;;15.03;11.97;;;7.60;91.50;;;;;;5111632;28;20619;-49
2021/01/18 11:30:15;;;;;;;15.43;12.47;;;7.40;91.70;;;;;;5111733;28;20662;-49
2021/01/18 11:32:42;;;;;;;13.53;11.90;;;7.40;92.10;;;;;;5110165;28;20681;-48
2021/01/18 11:35:10;;;;;;;19.13;12.63;;;7.40;92.10;;;;;;5111964;28;20927;-48
2021/01/18 11:37:37;;;;;;;18.60;12.77;;;7.40;92.20;;;;;;5111778;28;20681;-49
2021/01/18 11:40:10;;;;;;;21.13;13.23;;;7.40;92.20;;;;;;5110579;28;20640;-49
2021/01/18 11:42:37;;;;;;;17.60;12.50;;;7.50;92.20;;;;;;5111409;27;20670;-48
2021/01/18 11:45:05;;;;;;;16.13;11.47;;;7.50;92.10;;;;;;5111903;27;20705;-49
2021/01/18 11:47:38;;;;;;;23.13;13.30;;;7.50;92.10;;;;;;5111754;28;21201;-47
2021/01/18 11:50:07;;;;;;;17.30;11.87;;;7.60;92.30;;;;;;5111610;28;20665;-50
2021/01/18 11:52:34;;;;;;;14.70;11.90;;;7.50;92.00;;;;;;5110212;28;20723;-47
2021/01/18 11:55:01;;;;;;;16.07;12.87;;;7.50;92.60;;;;;;5110782;27;20686;-49
2021/01/18 11:57:29;;;;;;;20.10;13.43;;;7.50;92.50;;;;;;5109609;28;20725;-49
2021/01/18 11:59:55;;;;;;;15.83;11.33;;;7.50;92.30;;;;;;5111460;28;20729;-49
2021/01/18 12:02:22;;;;;;;15.23;13.13;;;7.40;92.10;;;;;;5092901;27;21051;-49
2021/01/18 12:04:49;;;;;;;15.83;13.63;;;7.40;92.10;;;;;;5091257;28;21135;-50
2021/01/18 12:07:16;;;;;;;21.00;14.30;;;7.50;92.30;;;;;;5091091;28;20659;-50
2021/01/18 12:09:42;;;;;;;23.40;13.10;;;7.50;92.00;;;;;;5091536;28;20618;-49
2021/01/18 12:12:10;;;;;;;14.87;11.40;;;7.60;91.90;;;;;;5111557;28;20765;-50
2021/01/18 12:14:37;;;;;;;14.10;10.67;;;7.60;92.00;;;;;;5111401;28;20643;-48
2021/01/18 12:17:05;;;;;;;12.20;10.70;;;7.50;91.90;;;;;;5110877;28;20681;-50
2021/01/18 12:19:32;;;;;;;17.53;12.73;;;7.40;92.30;;;;;;5111541;28;20655;-49
2021/01/18 12:21:59;;;;;;;13.90;11.47;;;7.40;92.50;;;;;;5111547;27;20664;-49
2021/01/18 12:24:26;;;;;;;16.90;13.10;;;7.50;92.50;;;;;;5109169;28;20689;-49
2021/01/18 12:26:53;;;;;;;11.40;10.10;;;7.50;92.10;;;;;;5110982;28;20622;-50
2021/01/18 12:29:20;;;;;;;13.63;12.30;;;7.60;92.20;;;;;;5110852;28;20666;-50
2021/01/18 12:31:47;;;;;;;12.63;10.50;;;7.70;92.10;;;;;;5110604;28;20685;-50
2021/01/18 12:34:14;;;;;;;13.07;9.57;;;7.70;92.00;;;;;;5110906;28;20661;-50
2021/01/18 12:36:41;;;;;;;14.27;11.07;;;7.80;92.10;;;;;;5110234;28;20711;-51
2021/01/18 12:39:08;;;;;;;13.80;11.10;;;7.70;91.70;;;;;;5110147;28;21157;-50
2021/01/18 12:41:37;;;;;;;15.63;11.60;;;7.70;91.40;;;;;;5110454;28;20658;-50
2021/01/18 12:44:05;;;;;;;16.47;11.60;;;7.70;91.30;;;;;;5107459;28;20962;-49
2021/01/18 12:46:32;;;;;;;10.73;8.60;;;7.70;91.30;;;;;;5109161;28;20747;-50
2021/01/18 12:48:59;;;;;;;13.33;9.80;;;7.70;91.30;;;;;;5110426;28;20654;-49
2021/01/18 12:51:26;;;;;;;13.13;10.73;;;7.70;91.20;;;;;;5110205;28;20709;-49
2021/01/18 12:53:53;;;;;;;13.63;11.00;;;7.70;91.20;;;;;;5109858;28;21013;-49
2021/01/18 12:56:24;;;;;;;13.97;10.43;;;7.70;91.10;;;;;;5109662;28;20661;-48